Nefterudovoz-47m — UFFP — position and weather

sailwx.info

Track history (hours):
 
Tides and Currents Weather Stations Pressure Air Temp Water Temp Dewpoint Dewpoint Depression Visibility Wind Speed Wind Dir Waves Ship Positions

Nefterudovoz-47m

Last reported at 2017-Dec-08 22:02 UTC. Time now 2017-Dec-11 00:34 UTC.
Position N 46°35' E 031°31'.

Length 119 m; draft 2.6 m.

Type: Cargo ship. MMSI: 273347800.

Date/timePositionNaut miles runAvg speedWind from/ knotsBaromVisibWave heightAir tempDewpointWater temp
2017-Dec-08 22:02N 46°35' E 031°31'1 6.4
2017-Dec-08 21:50N 46°35' E 031°33'3 6.6
2017-Dec-08 21:21N 46°35' E 031°38'3 6.6
2017-Dec-08 20:55N 46°36' E 031°42'3 6.6
2017-Dec-08 20:29N 46°36' E 031°46'3 6.3
2017-Dec-08 20:00N 46°35' E 031°50'3 6.5
2017-Dec-08 19:31N 46°34' E 031°55'3 6.7
2017-Dec-08 19:00N 46°33' E 031°60'3 6.7
2017-Dec-08 18:30N 46°32' E 032°04'5 6.8
2017-Dec-08 17:50N 46°32' E 032°11'4 7.1
2017-Dec-08 17:19N 46°33' E 032°16'118 3.9
2017-Dec-07 10:58N 47°31' E 034°46'3 6.4
2017-Dec-07 10:30N 47°32' E 034°50'7 6.4
2017-Dec-07 09:24N 47°34' E 034°60'3 6.4
2017-Dec-07 09:00N 47°36' E 035°03'3 6.8
2017-Dec-07 08:30N 47°38' E 035°06'4 7.0
2017-Dec-07 08:00N 47°42' E 035°08'3 6.6
2017-Dec-07 07:30N 47°45' E 035°10'3 6.9
2017-Dec-07 07:00N 47°48' E 035°10'4 7.1
2017-Dec-07 06:30N 47°50' E 035°06'2 3.2
2017-Dec-07 06:00N 47°52' E 035°06'0 0.0
2017-Dec-07 05:30N 47°52' E 035°06'2 3.5
2017-Dec-07 05:00N 47°54' E 035°06'1 2.7
2017-Dec-07 04:30N 47°54' E 035°08'0 0.0
2017-Dec-07 04:00N 47°54' E 035°08'0 0.0
2017-Dec-07 03:30N 47°54' E 035°08'0 0.0
2017-Dec-07 03:00N 47°54' E 035°08'0 0.0
2017-Dec-07 02:30N 47°54' E 035°08'0 0.0
2017-Dec-07 02:00N 47°54' E 035°08'0 0.0
2017-Dec-07 01:30N 47°54' E 035°08'0 0.0
2017-Dec-07 01:00N 47°54' E 035°08'0 0.0
2017-Dec-07 00:30N 47°54' E 035°08'0 0.0
2017-Dec-07 00:00N 47°54' E 035°08'0 0.0
2017-Dec-06 23:30N 47°54' E 035°08'0 0.0
2017-Dec-06 23:00N 47°54' E 035°08'0 0.0
2017-Dec-06 22:30N 47°54' E 035°08'0 0.0
2017-Dec-06 22:00N 47°54' E 035°08'0 0.0
2017-Dec-06 21:30N 47°54' E 035°08'0 0.0
2017-Dec-06 21:00N 47°54' E 035°08'  
2017-Dec-02 10:30N 46°33' E 032°00'  
2017-Nov-29 09:22N 45°15' E 036°28'3 6.1
2017-Nov-29 08:53N 45°18' E 036°29'2 6.6
2017-Nov-29 08:30N 45°19' E 036°32'3 6.4
2017-Nov-29 08:01N 45°20' E 036°37'3 5.6
2017-Nov-29 07:31N 45°21' E 036°40'2 4.2
2017-Nov-29 07:00N 45°23' E 036°41'2 4.8
2017-Nov-29 06:31N 45°26' E 036°42'3 5.3
2017-Nov-29 06:00N 45°28' E 036°43'1 1.5
2017-Nov-29 05:29N 45°29' E 036°43'0 0.0
2017-Nov-29 04:56N 45°29' E 036°43'0 0.0
2017-Nov-29 04:29N 45°29' E 036°43'0 0.0
2017-Nov-29 03:59N 45°29' E 036°43'0 0.0
2017-Nov-29 03:26N 45°29' E 036°43'0 0.0
2017-Nov-29 02:59N 45°29' E 036°43'0 0.0
2017-Nov-29 02:29N 45°29' E 036°43'0 0.0
2017-Nov-29 01:38N 45°29' E 036°43'0 0.0
2017-Nov-29 01:29N 45°29' E 036°43'0 0.0
2017-Nov-28 23:05N 45°29' E 036°43'0 0.0
2017-Nov-28 22:47N 45°29' E 036°43'  
Track history (hours):
 
Tides and Currents Weather Stations Pressure Air Temp Water Temp Dewpoint Dewpoint Depression Visibility Wind Speed Wind Dir Waves Ship Positions

Nefterudovoz-47m

Last reported at 2017-Dec-08 22:02 UTC. Time now 2017-Dec-11 00:34 UTC.
Position N 46°35' E 031°31'.

Length 119 m; draft 2.6 m.

Type: Cargo ship. MMSI: 273347800.

Date/timePositionNaut miles runAvg speedWind from/ knotsBaromVisibWave heightAir tempDewpointWater temp
2017-Dec-08 22:02N 46°35' E 031°31'1 6.4
2017-Dec-08 21:50N 46°35' E 031°33'3 6.6
2017-Dec-08 21:21N 46°35' E 031°38'3 6.6
2017-Dec-08 20:55N 46°36' E 031°42'3 6.6
2017-Dec-08 20:29N 46°36' E 031°46'3 6.3
2017-Dec-08 20:00N 46°35' E 031°50'3 6.5
2017-Dec-08 19:31N 46°34' E 031°55'3 6.7
2017-Dec-08 19:00N 46°33' E 031°60'3 6.7
2017-Dec-08 18:30N 46°32' E 032°04'5 6.8
2017-Dec-08 17:50N 46°32' E 032°11'4 7.1
2017-Dec-08 17:19N 46°33' E 032°16'118 3.9
2017-Dec-07 10:58N 47°31' E 034°46'3 6.4
2017-Dec-07 10:30N 47°32' E 034°50'7 6.4
2017-Dec-07 09:24N 47°34' E 034°60'3 6.4
2017-Dec-07 09:00N 47°36' E 035°03'3 6.8
2017-Dec-07 08:30N 47°38' E 035°06'4 7.0
2017-Dec-07 08:00N 47°42' E 035°08'3 6.6
2017-Dec-07 07:30N 47°45' E 035°10'3 6.9
2017-Dec-07 07:00N 47°48' E 035°10'4 7.1
2017-Dec-07 06:30N 47°50' E 035°06'2 3.2
2017-Dec-07 06:00N 47°52' E 035°06'0 0.0
2017-Dec-07 05:30N 47°52' E 035°06'2 3.5
2017-Dec-07 05:00N 47°54' E 035°06'1 2.7
2017-Dec-07 04:30N 47°54' E 035°08'0 0.0
2017-Dec-07 04:00N 47°54' E 035°08'0 0.0
2017-Dec-07 03:30N 47°54' E 035°08'0 0.0
2017-Dec-07 03:00N 47°54' E 035°08'0 0.0
2017-Dec-07 02:30N 47°54' E 035°08'0 0.0
2017-Dec-07 02:00N 47°54' E 035°08'0 0.0
2017-Dec-07 01:30N 47°54' E 035°08'0 0.0
2017-Dec-07 01:00N 47°54' E 035°08'0 0.0
2017-Dec-07 00:30N 47°54' E 035°08'0 0.0
2017-Dec-07 00:00N 47°54' E 035°08'0 0.0
2017-Dec-06 23:30N 47°54' E 035°08'0 0.0
2017-Dec-06 23:00N 47°54' E 035°08'0 0.0
2017-Dec-06 22:30N 47°54' E 035°08'0 0.0
2017-Dec-06 22:00N 47°54' E 035°08'0 0.0
2017-Dec-06 21:30N 47°54' E 035°08'0 0.0
2017-Dec-06 21:00N 47°54' E 035°08'  
2017-Dec-02 10:30N 46°33' E 032°00'  
2017-Nov-29 09:22N 45°15' E 036°28'3 6.1
2017-Nov-29 08:53N 45°18' E 036°29'2 6.6
2017-Nov-29 08:30N 45°19' E 036°32'3 6.4
2017-Nov-29 08:01N 45°20' E 036°37'3 5.6
2017-Nov-29 07:31N 45°21' E 036°40'2 4.2
2017-Nov-29 07:00N 45°23' E 036°41'2 4.8
2017-Nov-29 06:31N 45°26' E 036°42'3 5.3
2017-Nov-29 06:00N 45°28' E 036°43'1 1.5
2017-Nov-29 05:29N 45°29' E 036°43'0 0.0
2017-Nov-29 04:56N 45°29' E 036°43'0 0.0
2017-Nov-29 04:29N 45°29' E 036°43'0 0.0
2017-Nov-29 03:59N 45°29' E 036°43'0 0.0
2017-Nov-29 03:26N 45°29' E 036°43'0 0.0
2017-Nov-29 02:59N 45°29' E 036°43'0 0.0
2017-Nov-29 02:29N 45°29' E 036°43'0 0.0
2017-Nov-29 01:38N 45°29' E 036°43'0 0.0
2017-Nov-29 01:29N 45°29' E 036°43'0 0.0
2017-Nov-28 23:05N 45°29' E 036°43'0 0.0
2017-Nov-28 22:47N 45°29' E 036°43'  

Dump ship's entire track history